N.dadayli — TCCW7 — position and weather

sailwx.info

Track history (hours):
 
Tides and Currents Weather Stations Pressure Air Temp Water Temp Dewpoint Dewpoint Depression Visibility Wind Speed Wind Dir Waves Ship Positions

N.dadayli

Last reported at 2015-Aug-30 02:27 UTC. Time now 2015-Aug-30 05:53 UTC.
Position N 36°47' E 000°10'.

Length 101 m; draft 7.2 m.

Type: Ship. MMSI: 271000768.

Date/timePositionNaut miles runAvg speedWind from/ knotsBaromVisibWave heightAir tempDewpointWater temp
2015-Aug-30 02:27N 36°47' E 000°10'377 8.7
2015-Aug-28 07:14N 36°12' W 007°36'710.9
2015-Aug-28 06:33N 36°14' W 007°45'2610.8
2015-Aug-28 04:08N 36°23' W 008°15'610.8
2015-Aug-28 03:33N 36°25' W 008°23'1110.9
2015-Aug-28 02:31N 36°27' W 008°37'1010.5
2015-Aug-28 01:33N 36°28' W 008°49'1110.7
2015-Aug-28 00:33N 36°31' W 009°02'1010.4
2015-Aug-27 23:33N 36°34' W 009°14'1110.7
2015-Aug-27 22:33N 36°41' W 009°24'1110.9
2015-Aug-27 21:33N 36°50' W 009°33'1111.4
2015-Aug-27 20:33N 37°01' W 009°36'1111.3
2015-Aug-27 19:33N 37°12' W 009°39'1111.1
2015-Aug-27 18:33N 37°23' W 009°42'1110.6
2015-Aug-27 17:33N 37°33' W 009°46'1110.8
2015-Aug-27 16:33N 37°44' W 009°48'1010.4
2015-Aug-27 15:33N 37°54' W 009°50'9 8.8
2015-Aug-27 14:33N 38°03' W 009°52'10 9.5
2015-Aug-27 13:33N 38°12' W 009°55'1110.5
2015-Aug-27 12:33N 38°21' W 010°00'1111.3
2015-Aug-27 11:33N 38°32' W 010°03'1111.3
2015-Aug-27 10:33N 38°44' W 010°05'1110.9
2015-Aug-27 09:33N 38°55' W 010°05'1010.0
2015-Aug-27 08:33N 39°05' W 010°05'9 8.5
2015-Aug-27 07:33N 39°13' W 010°06'8 8.5
2015-Aug-27 06:33N 39°22' W 010°05'  
2015-Aug-21 12:14N 41°40' W 008°53'0 0.0
2015-Aug-21 06:20N 41°40' W 008°53'0 0.0
2015-Aug-21 02:08N 41°40' W 008°53'0 0.0
2015-Aug-21 01:14N 41°40' W 008°53'0 0.0
2015-Aug-21 00:26N 41°40' W 008°53'0 0.0
2015-Aug-20 23:32N 41°40' W 008°53'0 0.0
2015-Aug-20 22:32N 41°40' W 008°53'0 0.0
2015-Aug-20 21:32N 41°40' W 008°53'0 0.0
2015-Aug-20 20:32N 41°40' W 008°53'0 0.0
2015-Aug-20 19:32N 41°40' W 008°53'0 0.0
2015-Aug-20 18:29N 41°40' W 008°53'0 0.0
2015-Aug-20 17:32N 41°40' W 008°53'0 0.0
2015-Aug-20 16:32N 41°40' W 008°53'0 0.0
2015-Aug-20 15:32N 41°40' W 008°53'0 0.0
2015-Aug-20 14:32N 41°40' W 008°53'0 0.0
2015-Aug-20 13:32N 41°40' W 008°53'0 0.0
2015-Aug-20 10:32N 41°40' W 008°53'0 0.0
2015-Aug-20 08:32N 41°40' W 008°53'0 0.0
2015-Aug-20 07:32N 41°40' W 008°53'0 0.0
2015-Aug-20 06:32N 41°40' W 008°53'0 0.0
2015-Aug-20 05:32N 41°40' W 008°53'0 0.0
2015-Aug-20 04:32N 41°40' W 008°53'  
Track history (hours):
 
Tides and Currents Weather Stations Pressure Air Temp Water Temp Dewpoint Dewpoint Depression Visibility Wind Speed Wind Dir Waves Ship Positions

N.dadayli

Last reported at 2015-Aug-30 02:27 UTC. Time now 2015-Aug-30 05:53 UTC.
Position N 36°47' E 000°10'.

Length 101 m; draft 7.2 m.

Type: Ship. MMSI: 271000768.

Date/timePositionNaut miles runAvg speedWind from/ knotsBaromVisibWave heightAir tempDewpointWater temp
2015-Aug-30 02:27N 36°47' E 000°10'377 8.7
2015-Aug-28 07:14N 36°12' W 007°36'710.9
2015-Aug-28 06:33N 36°14' W 007°45'2610.8
2015-Aug-28 04:08N 36°23' W 008°15'610.8
2015-Aug-28 03:33N 36°25' W 008°23'1110.9
2015-Aug-28 02:31N 36°27' W 008°37'1010.5
2015-Aug-28 01:33N 36°28' W 008°49'1110.7
2015-Aug-28 00:33N 36°31' W 009°02'1010.4
2015-Aug-27 23:33N 36°34' W 009°14'1110.7
2015-Aug-27 22:33N 36°41' W 009°24'1110.9
2015-Aug-27 21:33N 36°50' W 009°33'1111.4
2015-Aug-27 20:33N 37°01' W 009°36'1111.3
2015-Aug-27 19:33N 37°12' W 009°39'1111.1
2015-Aug-27 18:33N 37°23' W 009°42'1110.6
2015-Aug-27 17:33N 37°33' W 009°46'1110.8
2015-Aug-27 16:33N 37°44' W 009°48'1010.4
2015-Aug-27 15:33N 37°54' W 009°50'9 8.8
2015-Aug-27 14:33N 38°03' W 009°52'10 9.5
2015-Aug-27 13:33N 38°12' W 009°55'1110.5
2015-Aug-27 12:33N 38°21' W 010°00'1111.3
2015-Aug-27 11:33N 38°32' W 010°03'1111.3
2015-Aug-27 10:33N 38°44' W 010°05'1110.9
2015-Aug-27 09:33N 38°55' W 010°05'1010.0
2015-Aug-27 08:33N 39°05' W 010°05'9 8.5
2015-Aug-27 07:33N 39°13' W 010°06'8 8.5
2015-Aug-27 06:33N 39°22' W 010°05'  
2015-Aug-21 12:14N 41°40' W 008°53'0 0.0
2015-Aug-21 06:20N 41°40' W 008°53'0 0.0
2015-Aug-21 02:08N 41°40' W 008°53'0 0.0
2015-Aug-21 01:14N 41°40' W 008°53'0 0.0
2015-Aug-21 00:26N 41°40' W 008°53'0 0.0
2015-Aug-20 23:32N 41°40' W 008°53'0 0.0
2015-Aug-20 22:32N 41°40' W 008°53'0 0.0
2015-Aug-20 21:32N 41°40' W 008°53'0 0.0
2015-Aug-20 20:32N 41°40' W 008°53'0 0.0
2015-Aug-20 19:32N 41°40' W 008°53'0 0.0
2015-Aug-20 18:29N 41°40' W 008°53'0 0.0
2015-Aug-20 17:32N 41°40' W 008°53'0 0.0
2015-Aug-20 16:32N 41°40' W 008°53'0 0.0
2015-Aug-20 15:32N 41°40' W 008°53'0 0.0
2015-Aug-20 14:32N 41°40' W 008°53'0 0.0
2015-Aug-20 13:32N 41°40' W 008°53'0 0.0
2015-Aug-20 10:32N 41°40' W 008°53'0 0.0
2015-Aug-20 08:32N 41°40' W 008°53'0 0.0
2015-Aug-20 07:32N 41°40' W 008°53'0 0.0
2015-Aug-20 06:32N 41°40' W 008°53'0 0.0
2015-Aug-20 05:32N 41°40' W 008°53'0 0.0
2015-Aug-20 04:32N 41°40' W 008°53'  

Dump ship's entire track history